sensor_id;sensor_type;location;lat;lon;timestamp;temperature;humidity
58447;DHT22;44240;51.840;7.258;2024-03-08T00:00:07;6.00;64.30
58447;DHT22;44240;51.840;7.258;2024-03-08T00:02:43;6.00;64.40
58447;DHT22;44240;51.840;7.258;2024-03-08T00:05:11;6.00;64.40
58447;DHT22;44240;51.840;7.258;2024-03-08T00:07:39;5.90;64.40
58447;DHT22;44240;51.840;7.258;2024-03-08T00:10:07;5.90;64.50
58447;DHT22;44240;51.840;7.258;2024-03-08T00:12:45;5.90;64.40
58447;DHT22;44240;51.840;7.258;2024-03-08T00:15:14;5.90;64.60
58447;DHT22;44240;51.840;7.258;2024-03-08T00:17:44;5.90;64.60
58447;DHT22;44240;51.840;7.258;2024-03-08T00:20:11;5.90;64.60
58447;DHT22;44240;51.840;7.258;2024-03-08T00:22:40;5.90;64.80
58447;DHT22;44240;51.840;7.258;2024-03-08T00:25:07;5.80;64.70
58447;DHT22;44240;51.840;7.258;2024-03-08T00:27:36;5.80;64.80
58447;DHT22;44240;51.840;7.258;2024-03-08T00:30:03;5.80;64.80
58447;DHT22;44240;51.840;7.258;2024-03-08T00:32:31;5.80;64.80
58447;DHT22;44240;51.840;7.258;2024-03-08T00:34:58;5.70;64.80
58447;DHT22;44240;51.840;7.258;2024-03-08T00:37:26;5.70;64.90
58447;DHT22;44240;51.840;7.258;2024-03-08T00:39:53;5.70;65.10
58447;DHT22;44240;51.840;7.258;2024-03-08T00:42:20;5.70;65.10
58447;DHT22;44240;51.840;7.258;2024-03-08T00:44:48;5.70;65.20
58447;DHT22;44240;51.840;7.258;2024-03-08T00:47:17;5.70;66.30
58447;DHT22;44240;51.840;7.258;2024-03-08T00:49:44;5.70;65.30
58447;DHT22;44240;51.840;7.258;2024-03-08T00:52:11;5.60;65.40
58447;DHT22;44240;51.840;7.258;2024-03-08T00:54:38;5.60;65.40
58447;DHT22;44240;51.840;7.258;2024-03-08T00:57:05;5.60;65.50
58447;DHT22;44240;51.840;7.258;2024-03-08T00:59:33;5.60;65.50
58447;DHT22;44240;51.840;7.258;2024-03-08T01:02:01;5.60;65.50
58447;DHT22;44240;51.840;7.258;2024-03-08T01:04:28;5.50;65.40
58447;DHT22;44240;51.840;7.258;2024-03-08T01:06:59;5.50;65.60
58447;DHT22;44240;51.840;7.258;2024-03-08T01:09:26;5.50;65.70
58447;DHT22;44240;51.840;7.258;2024-03-08T01:11:55;5.50;66.80
58447;DHT22;44240;51.840;7.258;2024-03-08T01:14:23;5.40;65.80
58447;DHT22;44240;51.840;7.258;2024-03-08T01:16:50;5.40;65.90
58447;DHT22;44240;51.840;7.258;2024-03-08T01:19:17;5.40;66.00
58447;DHT22;44240;51.840;7.258;2024-03-08T01:21:44;5.40;66.10
58447;DHT22;44240;51.840;7.258;2024-03-08T01:24:11;5.30;66.00
58447;DHT22;44240;51.840;7.258;2024-03-08T01:26:38;5.30;67.10
58447;DHT22;44240;51.840;7.258;2024-03-08T01:29:05;5.30;66.30
58447;DHT22;44240;51.840;7.258;2024-03-08T01:31:32;5.30;66.40
58447;DHT22;44240;51.840;7.258;2024-03-08T01:33:59;5.30;66.50
58447;DHT22;44240;51.840;7.258;2024-03-08T01:36:26;5.20;66.50
58447;DHT22;44240;51.840;7.258;2024-03-08T01:38:53;5.20;66.50
58447;DHT22;44240;51.840;7.258;2024-03-08T01:41:20;5.20;66.60
58447;DHT22;44240;51.840;7.258;2024-03-08T01:43:47;5.20;66.60
58447;DHT22;44240;51.840;7.258;2024-03-08T01:46:18;5.20;66.70
58447;DHT22;44240;51.840;7.258;2024-03-08T01:48:45;5.10;66.80
58447;DHT22;44240;51.840;7.258;2024-03-08T01:51:13;5.10;66.90
58447;DHT22;44240;51.840;7.258;2024-03-08T01:53:43;5.00;66.80
58447;DHT22;44240;51.840;7.258;2024-03-08T01:56:13;5.10;67.00
58447;DHT22;44240;51.840;7.258;2024-03-08T01:58:44;5.00;67.10
58447;DHT22;44240;51.840;7.258;2024-03-08T02:01:12;5.00;67.20
58447;DHT22;44240;51.840;7.258;2024-03-08T02:03:42;5.00;67.20
58447;DHT22;44240;51.840;7.258;2024-03-08T02:06:13;5.00;67.20
58447;DHT22;44240;51.840;7.258;2024-03-08T02:08:44;5.00;67.20
58447;DHT22;44240;51.840;7.258;2024-03-08T02:11:12;5.00;67.20
58447;DHT22;44240;51.840;7.258;2024-03-08T02:13:40;5.00;67.20
58447;DHT22;44240;51.840;7.258;2024-03-08T02:16:07;5.00;67.40
58447;DHT22;44240;51.840;7.258;2024-03-08T02:18:36;4.90;67.40
58447;DHT22;44240;51.840;7.258;2024-03-08T02:21:05;4.90;67.50
58447;DHT22;44240;51.840;7.258;2024-03-08T02:23:33;4.90;67.50
58447;DHT22;44240;51.840;7.258;2024-03-08T02:26:00;4.90;67.60
58447;DHT22;44240;51.840;7.258;2024-03-08T02:28:27;4.90;67.60
58447;DHT22;44240;51.840;7.258;2024-03-08T02:30:55;4.90;67.80
58447;DHT22;44240;51.840;7.258;2024-03-08T02:33:24;4.90;67.70
58447;DHT22;44240;51.840;7.258;2024-03-08T02:35:51;4.90;67.70
58447;DHT22;44240;51.840;7.258;2024-03-08T02:38:20;4.90;67.70
58447;DHT22;44240;51.840;7.258;2024-03-08T02:40:51;4.90;67.60
58447;DHT22;44240;51.840;7.258;2024-03-08T02:43:20;4.90;67.70
58447;DHT22;44240;51.840;7.258;2024-03-08T02:45:48;4.80;67.70
58447;DHT22;44240;51.840;7.258;2024-03-08T02:48:16;4.80;67.70
58447;DHT22;44240;51.840;7.258;2024-03-08T02:50:43;4.90;67.90
58447;DHT22;44240;51.840;7.258;2024-03-08T02:53:12;4.80;67.90
58447;DHT22;44240;51.840;7.258;2024-03-08T02:55:39;4.80;67.90
58447;DHT22;44240;51.840;7.258;2024-03-08T02:58:08;4.80;67.90
58447;DHT22;44240;51.840;7.258;2024-03-08T03:00:38;4.80;68.00
58447;DHT22;44240;51.840;7.258;2024-03-08T03:03:07;4.80;68.00
58447;DHT22;44240;51.840;7.258;2024-03-08T03:05:34;4.70;68.00
58447;DHT22;44240;51.840;7.258;2024-03-08T03:08:01;4.70;68.00
58447;DHT22;44240;51.840;7.258;2024-03-08T03:10:30;4.70;68.10
58447;DHT22;44240;51.840;7.258;2024-03-08T03:12:57;4.70;68.10
58447;DHT22;44240;51.840;7.258;2024-03-08T03:15:24;4.70;68.10
58447;DHT22;44240;51.840;7.258;2024-03-08T03:17:54;4.70;68.10
58447;DHT22;44240;51.840;7.258;2024-03-08T03:20:22;4.70;68.10
58447;DHT22;44240;51.840;7.258;2024-03-08T03:23:00;4.70;68.20
58447;DHT22;44240;51.840;7.258;2024-03-08T03:25:30;4.70;68.20
58447;DHT22;44240;51.840;7.258;2024-03-08T03:28:02;4.60;68.20
58447;DHT22;44240;51.840;7.258;2024-03-08T03:30:29;4.60;68.20
58447;DHT22;44240;51.840;7.258;2024-03-08T03:33:00;4.60;68.30
58447;DHT22;44240;51.840;7.258;2024-03-08T03:35:28;4.60;68.30
58447;DHT22;44240;51.840;7.258;2024-03-08T03:37:56;4.60;68.40
58447;DHT22;44240;51.840;7.258;2024-03-08T03:40:34;4.60;68.40
58447;DHT22;44240;51.840;7.258;2024-03-08T03:43:01;4.60;68.40
58447;DHT22;44240;51.840;7.258;2024-03-08T03:45:30;4.50;68.30
58447;DHT22;44240;51.840;7.258;2024-03-08T03:48:07;4.50;68.40
58447;DHT22;44240;51.840;7.258;2024-03-08T03:50:36;4.50;68.50
58447;DHT22;44240;51.840;7.258;2024-03-08T03:53:04;4.50;68.60
58447;DHT22;44240;51.840;7.258;2024-03-08T03:55:31;4.50;68.70
58447;DHT22;44240;51.840;7.258;2024-03-08T03:57:58;4.50;68.60
58447;DHT22;44240;51.840;7.258;2024-03-08T04:00:27;4.50;68.70
58447;DHT22;44240;51.840;7.258;2024-03-08T04:02:54;4.40;68.60
58447;DHT22;44240;51.840;7.258;2024-03-08T04:05:27;4.40;68.70
58447;DHT22;44240;51.840;7.258;2024-03-08T04:07:54;4.40;68.70
58447;DHT22;44240;51.840;7.258;2024-03-08T04:10:21;4.40;68.70
58447;DHT22;44240;51.840;7.258;2024-03-08T04:12:48;4.40;68.80
58447;DHT22;44240;51.840;7.258;2024-03-08T04:15:14;4.40;68.90
58447;DHT22;44240;51.840;7.258;2024-03-08T04:17:42;4.40;69.00
58447;DHT22;44240;51.840;7.258;2024-03-08T04:20:09;4.40;69.00
58447;DHT22;44240;51.840;7.258;2024-03-08T04:22:37;4.40;69.10
58447;DHT22;44240;51.840;7.258;2024-03-08T04:25:04;4.40;69.10
58447;DHT22;44240;51.840;7.258;2024-03-08T04:27:33;4.30;69.10
58447;DHT22;44240;51.840;7.258;2024-03-08T04:30:00;4.30;69.00
58447;DHT22;44240;51.840;7.258;2024-03-08T04:32:28;4.30;69.10
58447;DHT22;44240;51.840;7.258;2024-03-08T04:34:57;4.30;69.10
58447;DHT22;44240;51.840;7.258;2024-03-08T04:37:24;4.30;69.10
58447;DHT22;44240;51.840;7.258;2024-03-08T04:39:52;4.30;69.20
58447;DHT22;44240;51.840;7.258;2024-03-08T04:42:18;4.20;69.20
58447;DHT22;44240;51.840;7.258;2024-03-08T04:44:46;4.20;69.30
58447;DHT22;44240;51.840;7.258;2024-03-08T04:47:12;4.20;69.30
58447;DHT22;44240;51.840;7.258;2024-03-08T04:49:39;4.20;69.40
58447;DHT22;44240;51.840;7.258;2024-03-08T04:52:06;4.20;69.30
58447;DHT22;44240;51.840;7.258;2024-03-08T04:54:34;4.20;69.40
58447;DHT22;44240;51.840;7.258;2024-03-08T04:57:01;4.20;69.40
58447;DHT22;44240;51.840;7.258;2024-03-08T04:59:32;4.20;69.50
58447;DHT22;44240;51.840;7.258;2024-03-08T05:01:59;4.20;69.50
58447;DHT22;44240;51.840;7.258;2024-03-08T05:04:26;4.20;69.50
58447;DHT22;44240;51.840;7.258;2024-03-08T05:06:53;4.10;69.50
58447;DHT22;44240;51.840;7.258;2024-03-08T05:09:20;4.20;69.60
58447;DHT22;44240;51.840;7.258;2024-03-08T05:11:47;4.10;69.50
58447;DHT22;44240;51.840;7.258;2024-03-08T05:14:15;4.10;69.50
58447;DHT22;44240;51.840;7.258;2024-03-08T05:16:47;4.10;69.50
58447;DHT22;44240;51.840;7.258;2024-03-08T05:19:18;4.10;69.50
58447;DHT22;44240;51.840;7.258;2024-03-08T05:21:49;4.10;69.60
58447;DHT22;44240;51.840;7.258;2024-03-08T05:24:17;4.10;69.60
58447;DHT22;44240;51.840;7.258;2024-03-08T05:26:45;4.00;69.60
58447;DHT22;44240;51.840;7.258;2024-03-08T05:29:13;4.00;69.60
58447;DHT22;44240;51.840;7.258;2024-03-08T05:31:51;4.00;69.70
58447;DHT22;44240;51.840;7.258;2024-03-08T05:34:21;4.00;69.70
58447;DHT22;44240;51.840;7.258;2024-03-08T05:36:49;4.00;69.70
58447;DHT22;44240;51.840;7.258;2024-03-08T05:39:19;4.00;69.80
58447;DHT22;44240;51.840;7.258;2024-03-08T05:41:49;4.00;69.80
58447;DHT22;44240;51.840;7.258;2024-03-08T05:44:16;3.90;69.80
58447;DHT22;44240;51.840;7.258;2024-03-08T05:46:45;3.90;69.90
58447;DHT22;44240;51.840;7.258;2024-03-08T05:49:15;3.90;70.00
58447;DHT22;44240;51.840;7.258;2024-03-08T05:51:42;3.90;70.00
58447;DHT22;44240;51.840;7.258;2024-03-08T05:54:10;3.90;69.90
58447;DHT22;44240;51.840;7.258;2024-03-08T05:56:41;3.90;70.00
58447;DHT22;44240;51.840;7.258;2024-03-08T05:59:10;3.90;70.00
58447;DHT22;44240;51.840;7.258;2024-03-08T06:01:37;3.90;70.10
58447;DHT22;44240;51.840;7.258;2024-03-08T06:04:07;3.90;70.00
58447;DHT22;44240;51.840;7.258;2024-03-08T06:06:34;3.90;70.00
58447;DHT22;44240;51.840;7.258;2024-03-08T06:09:01;3.90;70.00
58447;DHT22;44240;51.840;7.258;2024-03-08T06:11:35;3.90;70.00
58447;DHT22;44240;51.840;7.258;2024-03-08T06:14:04;3.90;70.00
58447;DHT22;44240;51.840;7.258;2024-03-08T06:16:33;3.80;70.10
58447;DHT22;44240;51.840;7.258;2024-03-08T06:19:00;3.80;70.10
58447;DHT22;44240;51.840;7.258;2024-03-08T06:21:29;3.80;70.20
58447;DHT22;44240;51.840;7.258;2024-03-08T06:23:56;3.80;70.20
58447;DHT22;44240;51.840;7.258;2024-03-08T06:26:25;3.80;70.30
58447;DHT22;44240;51.840;7.258;2024-03-08T06:28:56;3.80;70.30
58447;DHT22;44240;51.840;7.258;2024-03-08T06:31:23;3.80;70.30
58447;DHT22;44240;51.840;7.258;2024-03-08T06:33:50;3.80;70.30
58447;DHT22;44240;51.840;7.258;2024-03-08T06:36:17;3.80;70.40
58447;DHT22;44240;51.840;7.258;2024-03-08T06:38:49;3.80;70.50
58447;DHT22;44240;51.840;7.258;2024-03-08T06:41:16;3.80;70.50
58447;DHT22;44240;51.840;7.258;2024-03-08T06:43:44;3.80;70.50
58447;DHT22;44240;51.840;7.258;2024-03-08T06:46:11;3.80;70.50
58447;DHT22;44240;51.840;7.258;2024-03-08T06:48:39;3.80;70.50
58447;DHT22;44240;51.840;7.258;2024-03-08T06:51:07;3.80;70.60
58447;DHT22;44240;51.840;7.258;2024-03-08T06:53:34;3.80;70.50
58447;DHT22;44240;51.840;7.258;2024-03-08T06:56:05;3.80;70.50
58447;DHT22;44240;51.840;7.258;2024-03-08T06:58:32;3.90;70.60
58447;DHT22;44240;51.840;7.258;2024-03-08T07:00:59;3.90;70.60
58447;DHT22;44240;51.840;7.258;2024-03-08T07:03:27;3.90;70.60
58447;DHT22;44240;51.840;7.258;2024-03-08T07:05:56;3.90;70.70
58447;DHT22;44240;51.840;7.258;2024-03-08T07:08:26;3.90;70.60
58447;DHT22;44240;51.840;7.258;2024-03-08T07:10:56;3.90;70.60
58447;DHT22;44240;51.840;7.258;2024-03-08T07:13:25;3.90;70.60
58447;DHT22;44240;51.840;7.258;2024-03-08T07:15:52;4.00;70.60
58447;DHT22;44240;51.840;7.258;2024-03-08T07:18:19;4.00;70.60
58447;DHT22;44240;51.840;7.258;2024-03-08T07:20:46;4.00;70.60
58447;DHT22;44240;51.840;7.258;2024-03-08T07:23:13;4.00;70.50
58447;DHT22;44240;51.840;7.258;2024-03-08T07:26:00;4.10;70.60
58447;DHT22;44240;51.840;7.258;2024-03-08T07:28:28;4.10;70.50
58447;DHT22;44240;51.840;7.258;2024-03-08T07:30:58;4.20;70.60
58447;DHT22;44240;51.840;7.258;2024-03-08T07:33:43;4.20;70.50
58447;DHT22;44240;51.840;7.258;2024-03-08T07:36:11;4.30;70.40
58447;DHT22;44240;51.840;7.258;2024-03-08T07:38:38;4.30;71.30
58447;DHT22;44240;51.840;7.258;2024-03-08T07:41:05;4.30;70.20
58447;DHT22;44240;51.840;7.258;2024-03-08T07:43:32;4.40;70.20
58447;DHT22;44240;51.840;7.258;2024-03-08T07:46:01;4.50;70.10
58447;DHT22;44240;51.840;7.258;2024-03-08T07:48:28;4.50;69.80
58447;DHT22;44240;51.840;7.258;2024-03-08T07:50:55;4.60;69.90
58447;DHT22;44240;51.840;7.258;2024-03-08T07:53:22;4.70;69.80
58447;DHT22;44240;51.840;7.258;2024-03-08T07:55:51;4.70;69.50
58447;DHT22;44240;51.840;7.258;2024-03-08T07:58:19;4.80;69.40
58447;DHT22;44240;51.840;7.258;2024-03-08T08:00:46;4.90;69.30
58447;DHT22;44240;51.840;7.258;2024-03-08T08:03:13;5.00;69.10
58447;DHT22;44240;51.840;7.258;2024-03-08T08:05:40;5.00;68.90
58447;DHT22;44240;51.840;7.258;2024-03-08T08:08:08;5.10;68.70
58447;DHT22;44240;51.840;7.258;2024-03-08T08:10:38;5.20;68.30
58447;DHT22;44240;51.840;7.258;2024-03-08T08:13:05;5.30;68.30
58447;DHT22;44240;51.840;7.258;2024-03-08T08:15:32;5.40;68.20
58447;DHT22;44240;51.840;7.258;2024-03-08T08:18:02;5.50;67.70
58447;DHT22;44240;51.840;7.258;2024-03-08T08:20:33;5.60;67.50
58447;DHT22;44240;51.840;7.258;2024-03-08T08:23:00;5.70;66.90
58447;DHT22;44240;51.840;7.258;2024-03-08T08:25:27;5.70;67.10
58447;DHT22;44240;51.840;7.258;2024-03-08T08:27:54;5.90;67.10
58447;DHT22;44240;51.840;7.258;2024-03-08T08:30:21;5.90;66.70
58447;DHT22;44240;51.840;7.258;2024-03-08T08:32:48;6.00;66.40
58447;DHT22;44240;51.840;7.258;2024-03-08T08:35:16;6.10;66.50
58447;DHT22;44240;51.840;7.258;2024-03-08T08:37:45;6.20;66.20
58447;DHT22;44240;51.840;7.258;2024-03-08T08:40:12;6.30;66.00
58447;DHT22;44240;51.840;7.258;2024-03-08T08:42:42;6.40;65.60
58447;DHT22;44240;51.840;7.258;2024-03-08T08:45:09;6.50;65.70
58447;DHT22;44240;51.840;7.258;2024-03-08T08:47:44;6.50;65.60
58447;DHT22;44240;51.840;7.258;2024-03-08T08:50:13;6.60;65.50
58447;DHT22;44240;51.840;7.258;2024-03-08T08:52:40;6.70;65.20
58447;DHT22;44240;51.840;7.258;2024-03-08T08:55:07;6.80;65.10
58447;DHT22;44240;51.840;7.258;2024-03-08T08:57:34;6.90;65.20
58447;DHT22;44240;51.840;7.258;2024-03-08T09:00:03;7.00;64.90
58447;DHT22;44240;51.840;7.258;2024-03-08T09:02:34;7.10;64.70
58447;DHT22;44240;51.840;7.258;2024-03-08T09:05:01;7.10;64.40
58447;DHT22;44240;51.840;7.258;2024-03-08T09:07:29;7.20;64.00
58447;DHT22;44240;51.840;7.258;2024-03-08T09:09:56;7.20;63.90
58447;DHT22;44240;51.840;7.258;2024-03-08T09:12:25;7.20;63.70
58447;DHT22;44240;51.840;7.258;2024-03-08T09:14:52;7.30;63.90
58447;DHT22;44240;51.840;7.258;2024-03-08T09:17:19;7.40;63.80
58447;DHT22;44240;51.840;7.258;2024-03-08T09:19:49;7.50;63.80
58447;DHT22;44240;51.840;7.258;2024-03-08T09:22:16;7.50;63.70
58447;DHT22;44240;51.840;7.258;2024-03-08T09:24:45;7.60;63.80
58447;DHT22;44240;51.840;7.258;2024-03-08T09:27:12;7.70;63.70
58447;DHT22;44240;51.840;7.258;2024-03-08T09:29:40;7.80;63.10
58447;DHT22;44240;51.840;7.258;2024-03-08T09:32:07;7.80;63.00
58447;DHT22;44240;51.840;7.258;2024-03-08T09:34:34;7.90;62.90
58447;DHT22;44240;51.840;7.258;2024-03-08T09:37:04;7.90;62.80
58447;DHT22;44240;51.840;7.258;2024-03-08T09:39:31;8.00;62.90
58447;DHT22;44240;51.840;7.258;2024-03-08T09:42:01;8.00;62.70
58447;DHT22;44240;51.840;7.258;2024-03-08T09:44:28;8.10;62.50
58447;DHT22;44240;51.840;7.258;2024-03-08T09:46:58;8.20;62.20
58447;DHT22;44240;51.840;7.258;2024-03-08T09:49:26;8.20;61.50
58447;DHT22;44240;51.840;7.258;2024-03-08T09:51:53;8.30;61.80
58447;DHT22;44240;51.840;7.258;2024-03-08T09:54:20;8.30;61.50
58447;DHT22;44240;51.840;7.258;2024-03-08T09:56:51;8.40;61.50
58447;DHT22;44240;51.840;7.258;2024-03-08T09:59:18;8.50;61.30
58447;DHT22;44240;51.840;7.258;2024-03-08T10:01:55;8.60;61.20
58447;DHT22;44240;51.840;7.258;2024-03-08T10:04:23;8.70;60.60
58447;DHT22;44240;51.840;7.258;2024-03-08T10:06:50;8.80;60.20
58447;DHT22;44240;51.840;7.258;2024-03-08T10:09:17;9.00;59.70
58447;DHT22;44240;51.840;7.258;2024-03-08T10:11:45;9.00;59.70
58447;DHT22;44240;51.840;7.258;2024-03-08T10:14:12;9.20;59.50
58447;DHT22;44240;51.840;7.258;2024-03-08T10:16:39;9.30;59.20
58447;DHT22;44240;51.840;7.258;2024-03-08T10:19:06;9.40;59.10
58447;DHT22;44240;51.840;7.258;2024-03-08T10:21:34;9.50;59.20
58447;DHT22;44240;51.840;7.258;2024-03-08T10:24:02;9.60;58.90
58447;DHT22;44240;51.840;7.258;2024-03-08T10:26:30;9.70;57.70
58447;DHT22;44240;51.840;7.258;2024-03-08T10:28:57;9.80;57.70
58447;DHT22;44240;51.840;7.258;2024-03-08T10:31:24;9.80;57.90
58447;DHT22;44240;51.840;7.258;2024-03-08T10:33:52;9.90;59.00
58447;DHT22;44240;51.840;7.258;2024-03-08T10:36:19;10.00;57.90
58447;DHT22;44240;51.840;7.258;2024-03-08T10:38:46;10.10;57.70
58447;DHT22;44240;51.840;7.258;2024-03-08T10:41:15;10.10;57.50
58447;DHT22;44240;51.840;7.258;2024-03-08T10:44:18;10.20;57.10
58447;DHT22;44240;51.840;7.258;2024-03-08T10:52:31;10.30;56.60
58447;DHT22;44240;51.840;7.258;2024-03-08T10:54:59;10.30;56.50
58447;DHT22;44240;51.840;7.258;2024-03-08T10:57:27;10.30;56.60
58447;DHT22;44240;51.840;7.258;2024-03-08T10:59:55;10.30;56.70
58447;DHT22;44240;51.840;7.258;2024-03-08T11:02:25;10.40;56.80
58447;DHT22;44240;51.840;7.258;2024-03-08T11:04:54;10.40;56.30
58447;DHT22;44240;51.840;7.258;2024-03-08T11:07:24;10.40;56.20
58447;DHT22;44240;51.840;7.258;2024-03-08T11:09:56;10.40;56.20
58447;DHT22;44240;51.840;7.258;2024-03-08T11:12:26;10.40;56.20
58447;DHT22;44240;51.840;7.258;2024-03-08T11:14:59;10.40;56.20
58447;DHT22;44240;51.840;7.258;2024-03-08T11:19:59;10.50;56.10
58447;DHT22;44240;51.840;7.258;2024-03-08T11:22:33;10.50;56.10
58447;DHT22;44240;51.840;7.258;2024-03-08T11:25:04;10.50;55.80
58447;DHT22;44240;51.840;7.258;2024-03-08T11:27:36;10.50;55.70
58447;DHT22;44240;51.840;7.258;2024-03-08T11:30:07;10.50;55.20
58447;DHT22;44240;51.840;7.258;2024-03-08T11:32:47;10.50;55.60
58447;DHT22;44240;51.840;7.258;2024-03-08T11:35:22;10.50;55.70
58447;DHT22;44240;51.840;7.258;2024-03-08T11:37:51;10.50;55.60
58447;DHT22;44240;51.840;7.258;2024-03-08T11:40:19;10.50;55.30
58447;DHT22;44240;51.840;7.258;2024-03-08T11:42:48;10.60;55.40
58447;DHT22;44240;51.840;7.258;2024-03-08T11:45:16;10.60;55.00
58447;DHT22;44240;51.840;7.258;2024-03-08T11:47:45;10.60;55.20
58447;DHT22;44240;51.840;7.258;2024-03-08T11:50:17;10.60;55.00
58447;DHT22;44240;51.840;7.258;2024-03-08T11:52:46;10.60;54.70
58447;DHT22;44240;51.840;7.258;2024-03-08T11:55:13;10.60;54.80
58447;DHT22;44240;51.840;7.258;2024-03-08T11:57:40;10.60;54.80
58447;DHT22;44240;51.840;7.258;2024-03-08T12:00:18;10.70;54.40
58447;DHT22;44240;51.840;7.258;2024-03-08T12:03:06;10.60;54.50
58447;DHT22;44240;51.840;7.258;2024-03-08T12:05:33;10.70;54.80
58447;DHT22;44240;51.840;7.258;2024-03-08T12:08:02;10.70;54.40
58447;DHT22;44240;51.840;7.258;2024-03-08T12:10:29;10.70;54.20
58447;DHT22;44240;51.840;7.258;2024-03-08T12:12:59;10.70;54.30
58447;DHT22;44240;51.840;7.258;2024-03-08T12:15:27;10.70;54.10
58447;DHT22;44240;51.840;7.258;2024-03-08T12:17:55;10.80;54.50
58447;DHT22;44240;51.840;7.258;2024-03-08T12:20:28;10.80;54.80
58447;DHT22;44240;51.840;7.258;2024-03-08T12:22:57;10.90;54.60
58447;DHT22;44240;51.840;7.258;2024-03-08T12:25:31;10.90;55.00
58447;DHT22;44240;51.840;7.258;2024-03-08T12:28:12;10.90;54.40
58447;DHT22;44240;51.840;7.258;2024-03-08T12:30:51;10.90;54.10
58447;DHT22;44240;51.840;7.258;2024-03-08T12:33:23;11.00;53.90
58447;DHT22;44240;51.840;7.258;2024-03-08T12:35:51;11.10;53.80
58447;DHT22;44240;51.840;7.258;2024-03-08T12:38:21;11.10;53.60
58447;DHT22;44240;51.840;7.258;2024-03-08T12:40:55;11.10;53.50
58447;DHT22;44240;51.840;7.258;2024-03-08T12:43:24;11.20;53.30
58447;DHT22;44240;51.840;7.258;2024-03-08T12:45:51;11.30;53.30
58447;DHT22;44240;51.840;7.258;2024-03-08T12:48:18;11.30;53.00
58447;DHT22;44240;51.840;7.258;2024-03-08T12:50:45;11.40;52.70
58447;DHT22;44240;51.840;7.258;2024-03-08T12:53:14;11.50;53.00
58447;DHT22;44240;51.840;7.258;2024-03-08T12:55:41;11.60;53.00
58447;DHT22;44240;51.840;7.258;2024-03-08T12:58:09;11.70;53.00
58447;DHT22;44240;51.840;7.258;2024-03-08T13:00:36;11.80;52.40
58447;DHT22;44240;51.840;7.258;2024-03-08T13:03:03;11.90;51.90
58447;DHT22;44240;51.840;7.258;2024-03-08T13:05:30;11.90;51.50
58447;DHT22;44240;51.840;7.258;2024-03-08T13:07:57;12.00;51.40
58447;DHT22;44240;51.840;7.258;2024-03-08T13:10:24;12.10;51.30
58447;DHT22;44240;51.840;7.258;2024-03-08T13:12:51;12.10;50.90
58447;DHT22;44240;51.840;7.258;2024-03-08T13:15:20;12.20;50.70
58447;DHT22;44240;51.840;7.258;2024-03-08T13:17:48;12.20;50.60
58447;DHT22;44240;51.840;7.258;2024-03-08T13:20:15;12.30;50.60
58447;DHT22;44240;51.840;7.258;2024-03-08T13:22:56;12.30;50.20
58447;DHT22;44240;51.840;7.258;2024-03-08T13:25:25;12.40;50.20
58447;DHT22;44240;51.840;7.258;2024-03-08T13:27:53;12.50;50.10
58447;DHT22;44240;51.840;7.258;2024-03-08T13:30:23;12.50;50.00
58447;DHT22;44240;51.840;7.258;2024-03-08T13:32:53;12.60;50.10
58447;DHT22;44240;51.840;7.258;2024-03-08T13:35:20;12.70;49.90
58447;DHT22;44240;51.840;7.258;2024-03-08T13:37:54;12.70;49.50
58447;DHT22;44240;51.840;7.258;2024-03-08T13:40:22;12.80;49.10
58447;DHT22;44240;51.840;7.258;2024-03-08T13:42:49;12.80;48.80
58447;DHT22;44240;51.840;7.258;2024-03-08T13:45:16;12.80;49.00
58447;DHT22;44240;51.840;7.258;2024-03-08T13:47:50;12.90;49.30
58447;DHT22;44240;51.840;7.258;2024-03-08T13:50:21;12.90;48.50
58447;DHT22;44240;51.840;7.258;2024-03-08T13:52:50;13.00;48.60
58447;DHT22;44240;51.840;7.258;2024-03-08T13:55:24;13.00;49.80
58447;DHT22;44240;51.840;7.258;2024-03-08T13:57:53;13.10;48.80
58447;DHT22;44240;51.840;7.258;2024-03-08T14:00:20;13.20;48.40
58447;DHT22;44240;51.840;7.258;2024-03-08T14:02:49;13.30;48.80
58447;DHT22;44240;51.840;7.258;2024-03-08T14:05:16;13.40;49.00
58447;DHT22;44240;51.840;7.258;2024-03-08T14:07:48;13.50;48.90
58447;DHT22;44240;51.840;7.258;2024-03-08T14:10:16;13.60;48.20
58447;DHT22;44240;51.840;7.258;2024-03-08T14:12:47;13.80;47.60
58447;DHT22;44240;51.840;7.258;2024-03-08T14:15:15;13.90;47.10
58447;DHT22;44240;51.840;7.258;2024-03-08T14:17:43;14.00;47.10
58447;DHT22;44240;51.840;7.258;2024-03-08T14:20:12;14.10;46.80
58447;DHT22;44240;51.840;7.258;2024-03-08T14:22:39;14.40;46.60
58447;DHT22;44240;51.840;7.258;2024-03-08T14:25:06;14.80;45.90
58447;DHT22;44240;51.840;7.258;2024-03-08T14:27:46;15.60;44.50
58447;DHT22;44240;51.840;7.258;2024-03-08T14:30:13;16.50;42.40
58447;DHT22;44240;51.840;7.258;2024-03-08T14:32:54;17.30;40.60
58447;DHT22;44240;51.840;7.258;2024-03-08T14:35:21;17.70;39.70
58447;DHT22;44240;51.840;7.258;2024-03-08T14:37:48;17.70;39.70
58447;DHT22;44240;51.840;7.258;2024-03-08T14:40:16;17.70;39.40
58447;DHT22;44240;51.840;7.258;2024-03-08T14:42:43;17.80;39.40
58447;DHT22;44240;51.840;7.258;2024-03-08T14:45:11;18.10;38.60
58447;DHT22;44240;51.840;7.258;2024-03-08T14:47:38;18.50;37.90
58447;DHT22;44240;51.840;7.258;2024-03-08T14:50:05;18.70;37.40
58447;DHT22;44240;51.840;7.258;2024-03-08T14:52:35;18.80;37.20
58447;DHT22;44240;51.840;7.258;2024-03-08T14:55:02;18.90;36.30
58447;DHT22;44240;51.840;7.258;2024-03-08T14:57:29;18.90;36.30
58447;DHT22;44240;51.840;7.258;2024-03-08T14:59:59;18.70;36.70
58447;DHT22;44240;51.840;7.258;2024-03-08T15:02:33;18.40;36.40
58447;DHT22;44240;51.840;7.258;2024-03-08T15:05:03;18.10;37.20
58447;DHT22;44240;51.840;7.258;2024-03-08T15:07:35;18.00;37.20
58447;DHT22;44240;51.840;7.258;2024-03-08T15:10:02;17.90;37.10
58447;DHT22;44240;51.840;7.258;2024-03-08T15:12:29;17.70;37.50
58447;DHT22;44240;51.840;7.258;2024-03-08T15:14:55;17.50;38.10
58447;DHT22;44240;51.840;7.258;2024-03-08T15:17:22;17.50;38.00
58447;DHT22;44240;51.840;7.258;2024-03-08T15:19:50;17.40;38.40
58447;DHT22;44240;51.840;7.258;2024-03-08T15:22:18;17.20;38.60
58447;DHT22;44240;51.840;7.258;2024-03-08T15:24:45;17.10;39.70
58447;DHT22;44240;51.840;7.258;2024-03-08T15:27:12;17.00;39.10
58447;DHT22;44240;51.840;7.258;2024-03-08T15:29:39;16.90;38.90
58447;DHT22;44240;51.840;7.258;2024-03-08T15:32:06;16.60;39.10
58447;DHT22;44240;51.840;7.258;2024-03-08T15:34:36;16.30;39.60
58447;DHT22;44240;51.840;7.258;2024-03-08T15:37:05;16.10;40.20
58447;DHT22;44240;51.840;7.258;2024-03-08T15:39:33;15.80;40.80
58447;DHT22;44240;51.840;7.258;2024-03-08T15:42:00;15.70;41.30
58447;DHT22;44240;51.840;7.258;2024-03-08T15:44:27;15.70;41.00
58447;DHT22;44240;51.840;7.258;2024-03-08T15:46:55;15.60;41.20
58447;DHT22;44240;51.840;7.258;2024-03-08T15:49:22;15.50;41.30
58447;DHT22;44240;51.840;7.258;2024-03-08T15:51:51;15.20;41.80
58447;DHT22;44240;51.840;7.258;2024-03-08T15:54:18;14.90;42.50
58447;DHT22;44240;51.840;7.258;2024-03-08T15:56:45;14.60;42.90